Data for 10/16/2013

Time Sea-Level Adjusted Pressure Absolute Pressure Temperature Relative Humidity Dew Point   
(mb) (inHg) (mb) (inHg) (C) (F) (%) (C) (F)
00:05 1022 30.18 851 25.13 0.3 32.6 69 -4.6 23.7
00:10 1022 30.18 851 25.13 0.2 32.3 70 -4.7 23.6
00:15 1021 30.15 851 25.13 0.1 32.2 69 -4.9 23.2
00:20 1021 30.15 851 25.13 0.1 32.1 70 -4.8 23.3
00:25 1021 30.15 851 25.13 -0.1 31.9 70 -4.9 23.3
00:30 1021 30.15 851 25.13 -0.1 31.8 69 -5 22.9
00:35 1021 30.15 851 25.13 0.1 32.2 69 -5 23
00:40 1021 30.15 851 25.13 0.1 32.2 69 -5 23.1
00:45 1021 30.15 851 25.13 -0.2 31.6 70 -5.1 22.8
00:50 1021 30.15 851 25.13 -0.2 31.6 69 -5.2 22.7
00:55 1021 30.15 851 25.13 -0.1 31.8 68 -5.3 22.5
01:00 1021 30.15 851 25.13 0.1 32.3 66 -5.5 22.1
01:05 1021 30.15 851 25.13 0.4 32.7 67 -5 22.9
01:10 1021 30.15 851 25.13 0.6 33.1 65 -5.1 22.8
01:15 1021 30.15 851 25.13 0.8 33.4 66 -4.9 23.2
01:20 1021 30.15 851 25.13 0.6 33 67 -4.9 23.2
01:25 1022 30.18 851 25.13 0.5 32.8 67 -5 22.9
01:30 1022 30.18 851 25.13 0.4 32.7 67 -5.1 22.8
01:35 1022 30.18 851 25.13 0.5 32.9 66 -5.1 22.9
01:40 1022 30.18 851 25.13 0.2 32.4 68 -5 23
01:45 1022 30.18 851 25.13 -0.2 31.6 70 -5 23
01:50 1022 30.18 851 25.13 -0.7 30.7 72 -5.1 22.8
01:55 1022 30.18 851 25.13 -1 30.2 73 -5.2 22.6
02:00 1022 30.18 851 25.13 -1 30.2 73 -5.2 22.6
02:05 1022 30.18 851 25.13 -1 30.2 72 -5.4 22.3
02:10 1021 30.15 851 25.13 -0.8 30.6 69 -5.8 21.6
02:15 1021 30.15 851 25.13 -0.5 31 71 -5.2 22.6
02:20 1021 30.15 850 25.1 -0.8 30.6 72 -5.2 22.6
02:25 1021 30.15 850 25.1 -0.7 30.7 72 -5.2 22.7
02:30 1021 30.15 850 25.1 -1 30.2 74 -5.1 22.8
02:35 1021 30.15 850 25.1 -1.1 30.1 72 -5.4 22.2
02:40 1021 30.15 850 25.1 -1.1 30 72 -5.5 22.1
02:45 1021 30.15 850 25.1 -1.2 29.9 73 -5.4 22.2
02:50 1021 30.15 850 25.1 -0.9 30.4 70 -5.7 21.7
02:55 1021 30.15 850 25.1 -0.8 30.6 70 -5.6 21.9
03:00 1021 30.15 850 25.1 -0.9 30.5 70 -5.6 21.9
03:05 1021 30.15 850 25.1 -1.1 30.1 72 -5.5 22.2
03:10 1021 30.15 850 25.1 -1.3 29.7 72 -5.7 21.8
03:15 1021 30.15 850 25.1 -1.1 30 72 -5.5 22.1
03:20 1021 30.15 850 25.1 -1.1 30 72 -5.5 22.1
03:25 1021 30.15 850 25.1 -1.1 30.1 71 -5.6 21.9
03:30 1021 30.15 850 25.1 -1 30.2 71 -5.5 22
03:35 1021 30.15 850 25.1 -1.3 29.7 73 -5.4 22.2
03:40 1021 30.15 850 25.1 -1.6 29.1 75 -5.5 22
03:45 1021 30.15 850 25.1 -1.8 28.8 75 -5.7 21.7
03:50 1021 30.15 850 25.1 -1.7 28.9 74 -5.7 21.7
03:55 1021 30.15 850 25.1 -1.8 28.8 74 -5.8 21.6
04:00 1021 30.15 850 25.1 -1.8 28.8 74 -5.8 21.5
04:05 1021 30.15 850 25.1 -1.8 28.8 73 -5.9 21.3
04:10 1021 30.15 850 25.1 -1.4 29.5 72 -5.9 21.4
04:15 1021 30.15 850 25.1 -1.1 30 70 -6 21.3
04:20 1021 30.15 850 25.1 -1 30.3 70 -5.8 21.5
04:25 1021 30.15 850 25.1 -0.8 30.6 70 -5.6 21.9
04:30 1020 30.12 850 25.1 -1.1 30 71 -5.7 21.7
04:35 1020 30.12 850 25.1 -1.4 29.5 73 -5.6 22
04:40 1020 30.12 850 25.1 -1.9 28.6 75 -5.7 21.7
04:45 1020 30.12 850 25.1 -1.9 28.5 75 -5.8 21.5
04:50 1020 30.12 850 25.1 -1.8 28.7 74 -5.9 21.4
04:55 1020 30.12 850 25.1 -1.8 28.8 74 -5.9 21.4
05:00 1020 30.12 850 25.1 -1.8 28.8 73 -6 21.3
05:05 1020 30.12 850 25.1 -1.8 28.8 73 -6 21.2
05:10 1020 30.12 850 25.1 -1.9 28.6 73 -6 21.2
05:15 1020 30.12 850 25.1 -1.8 28.8 73 -6 21.2
05:20 1020 30.12 850 25.1 -1.6 29.1 71 -6.2 20.9
05:25 1020 30.12 850 25.1 -1.4 29.4 70 -6.2 20.8
05:30 1020 30.12 850 25.1 -1 30.2 67 -6.4 20.6
05:35 1020 30.12 850 25.1 -0.6 30.9 67 -6 21.1
05:40 1020 30.12 849 25.07 -0.9 30.5 68 -6 21.1
05:45 1020 30.12 850 25.1 -0.9 30.4 68 -6.2 20.9
05:50 1020 30.12 850 25.1 -0.7 30.7 66 -6.2 20.8
05:55 1020 30.12 850 25.1 -0.6 30.9 66 -6.2 20.9
06:00 1020 30.12 850 25.1 -0.7 30.7 67 -6.1 21
06:05 1020 30.12 850 25.1 -1 30.3 67 -6.2 20.8
06:10 1020 30.12 850 25.1 -1.1 30 68 -6.2 20.8
06:15 1020 30.12 850 25.1 -1.1 30 67 -6.4 20.5
06:20 1020 30.12 850 25.1 -1 30.3 68 -6.2 20.8
06:25 1020 30.12 850 25.1 -1.1 30 68 -6.3 20.7
06:30 1020 30.12 850 25.1 -1.2 29.8 69 -6.1 20.9
06:35 1020 30.12 850 25.1 -1.6 29.1 70 -6.3 20.6
06:40 1020 30.12 850 25.1 -1.7 29 70 -6.5 20.3
06:45 1020 30.12 850 25.1 -1.2 29.8 68 -6.3 20.7
06:50 1020 30.12 850 25.1 -1.4 29.5 68 -6.6 20.1
06:55 1020 30.12 850 25.1 -1.1 30 67 -6.5 20.4
07:00 1020 30.12 850 25.1 -1.3 29.6 68 -6.5 20.2
07:05 1020 30.12 850 25.1 -0.9 30.3 66 -6.5 20.3
07:10 1020 30.12 850 25.1 -1.3 29.7 68 -6.4 20.5
07:15 1020 30.12 850 25.1 -1.4 29.5 67 -6.7 20
07:20 1021 30.15 850 25.1 -1.1 30 67 -6.5 20.3
07:25 1021 30.15 850 25.1 -1 30.2 66 -6.7 20
07:30 1021 30.15 850 25.1 -0.7 30.8 66 -6.3 20.6
07:35 1021 30.15 850 25.1 -0.5 31.1 64 -6.5 20.2
07:40 1021 30.15 850 25.1 -0.3 31.4 64 -6.3 20.7
07:45 1021 30.15 850 25.1 -0.2 31.6 64 -6.2 20.8
07:50 1021 30.15 850 25.1 0.2 32.3 63 -6.1 21
07:55 1021 30.15 850 25.1 0.2 32.4 63 -6.1 21
08:00 1021 30.15 850 25.1 0.4 32.7 64 -5.7 21.8
08:05 1021 30.15 850 25.1 0.4 32.7 63 -5.8 21.5
08:10 1021 30.15 850 25.1 1.1 33.9 61 -5.6 21.8
08:15 1021 30.15 850 25.1 1.8 35.3 58 -5.6 21.9
08:20 1021 30.15 850 25.1 1.9 35.5 58 -5.5 22.2
08:25 1021 30.15 850 25.1 1.8 35.2 57 -5.8 21.6
08:30 1021 30.15 850 25.1 2.3 36.2 56 -5.7 21.8
08:35 1021 30.15 850 25.1 2.6 36.7 56 -5.4 22.3
08:40 1021 30.15 850 25.1 2.4 36.4 58 -4.9 23.1
08:45 1021 30.15 850 25.1 2.3 36.1 58 -5.1 22.8
08:50 1021 30.15 850 25.1 2.5 36.5 56 -5.3 22.4
08:55 1021 30.15 850 25.1 2.6 36.7 56 -5.2 22.6
09:00 1021 30.15 850 25.1 2.5 36.5 56 -5.4 22.3
09:05 1021 30.15 850 25.1 2.6 36.6 57 -5.2 22.6
09:10 1021 30.15 850 25.1 3 37.3 55 -5.2 22.6
09:15 1021 30.15 850 25.1 3.6 38.4 55 -4.6 23.6
09:20 1021 30.15 850 25.1 4.2 39.6 52 -4.9 23.2
09:25 1021 30.15 850 25.1 4.5 40.1 51 -4.9 23.2
09:30 1021 30.15 850 25.1 4.8 40.7 49 -5 23
09:35 1021 30.15 850 25.1 4.9 40.9 49 -4.9 23.2
09:40 1021 30.15 850 25.1 5.2 41.4 47 -5.2 22.6
09:45 1021 30.15 850 25.1 5.1 41.2 48 -5.1 22.9
09:50 1021 30.15 850 25.1 5.3 41.6 47 -5 23
09:55 1021 30.15 850 25.1 5.5 41.9 48 -4.7 23.5
10:00 1021 30.15 850 25.1 5.9 42.7 44 -5.3 22.5
10:05 1021 30.15 850 25.1 6.2 43.2 44 -5.2 22.6
10:10 1021 30.15 850 25.1 5.8 42.4 43 -5.7 21.7
10:15 1021 30.15 850 25.1 6 42.8 45 -5.2 22.7
10:20 1021 30.15 850 25.1 5.9 42.6 45 -5.1 22.8
10:25 1021 30.15 850 25.1 6.2 43.1 45 -4.9 23.1
10:30 1021 30.15 850 25.1 6 42.9 44 -5.2 22.6
10:35 1021 30.15 850 25.1 6.3 43.4 42 -5.6 21.9
10:40 1021 30.15 850 25.1 6.5 43.7 42 -5.5 22.1
10:45 1021 30.15 850 25.1 6.6 43.8 42 -5.3 22.4
10:50 1021 30.15 850 25.1 6.9 44.3 42 -5.3 22.5
10:55 1021 30.15 850 25.1 6.7 44 42 -5.3 22.5
11:00 1021 30.15 850 25.1 7.1 44.8 40 -5.7 21.8
11:05 1021 30.15 850 25.1 7 44.6 42 -5.1 22.8
11:10 1021 30.15 850 25.1 7 44.6 40 -5.6 21.8
11:15 1021 30.15 850 25.1 7.8 46 38 -5.7 21.8
11:20 1020 30.12 850 25.1 7.9 46.3 38 -5.5 22.1
11:25 1021 30.15 850 25.1 7.7 45.9 40 -4.9 23.1
11:30 1021 30.15 850 25.1 7.7 45.9 40 -5 22.9
11:35 1020 30.12 850 25.1 7.9 46.1 39 -5.1 22.8
11:40 1020 30.12 850 25.1 7.3 45.1 38 -6.1 21.1
11:45 1020 30.12 850 25.1 7.3 45.2 40 -5.4 22.2
11:50 1020 30.12 850 25.1 7.8 46.1 40 -4.9 23.1
11:55 1020 30.12 850 25.1 8.1 46.5 41 -4.5 23.9
12:00 1020 30.12 850 25.1 7.7 45.8 43 -4.1 24.7
12:05 1020 30.12 849 25.07 7.3 45.1 39 -5.8 21.5
12:10 1020 30.12 849 25.07 7.9 46.2 38 -5.5 22.1
12:15 1020 30.12 849 25.07 7.9 46.2 37 -5.9 21.4
12:20 1020 30.12 849 25.07 8.3 46.9 37 -5.6 22
12:25 1020 30.12 849 25.07 8.4 47.1 38 -5 23.1
12:30 1020 30.12 849 25.07 8.9 48.1 36 -5.4 22.3
12:35 1020 30.12 849 25.07 9.5 49 35 -5.4 22.3
12:40 1020 30.12 849 25.07 9.2 48.5 36 -5.1 22.8
12:45 1020 30.12 849 25.07 9.1 48.3 36 -5.2 22.7
12:50 1020 30.12 849 25.07 8.9 48 35 -5.7 21.7
12:55 1020 30.12 849 25.07 8.7 47.7 35 -5.8 21.6
13:00 1020 30.12 849 25.07 8.5 47.4 37 -5.4 22.2
13:05 1020 30.12 849 25.07 8.4 47.2 36 -5.8 21.5
13:10 1020 30.12 849 25.07 8.4 47.1 37 -5.4 22.3
13:15 1020 30.12 849 25.07 8.3 46.9 37 -5.6 21.9
13:20 1020 30.12 849 25.07 8.3 47 37 -5.7 21.8
13:25 1020 30.12 849 25.07 8.1 46.5 39 -4.9 23.2
13:30 1020 30.12 849 25.07 7.6 45.7 40 -5.1 22.8
13:35 1020 30.12 849 25.07 7.9 46.1 39 -5.3 22.4
13:40 1020 30.12 849 25.07 8.2 46.7 39 -5 23.1
13:45 1019 30.09 849 25.07 7.6 45.6 39 -5.4 22.2
13:50 1020 30.12 849 25.07 7.7 45.9 36 -6.3 20.6
13:55 1020 30.12 849 25.07 8.8 47.9 33 -6.4 20.5
14:00 1020 30.12 849 25.07 9.1 48.4 33 -6.4 20.4
14:05 1020 30.12 849 25.07 9.3 48.8 33 -6.2 20.8
14:10 1020 30.12 849 25.07 9 48.2 32 -6.6 20.1
14:15 1020 30.12 849 25.07 8.9 48 34 -6.2 20.8
14:20 1020 30.12 849 25.07 8.7 47.6 34 -6.3 20.6
14:25 1020 30.12 849 25.07 8.6 47.4 34 -6.4 20.4
14:30 1020 30.12 849 25.07 8.6 47.4 34 -6.3 20.6
14:35 1020 30.12 849 25.07 8.7 47.6 35 -6 21.2
14:40 1020 30.12 849 25.07 8.6 47.4 36 -5.7 21.8
14:45 1020 30.12 849 25.07 8.4 47.1 37 -5.3 22.5
14:50 1020 30.12 849 25.07 8.1 46.6 37 -5.7 21.7
14:55 1020 30.12 849 25.07 7.9 46.2 39 -5.2 22.7
15:00 1020 30.12 849 25.07 7.8 46.1 41 -4.7 23.6
15:05 1020 30.12 849 25.07 7.8 46 41 -4.7 23.5
15:10 1020 30.12 849 25.07 7.7 45.9 40 -5 23
15:15 1020 30.12 849 25.07 7.9 46.2 40 -5 23.1
15:20 1020 30.12 849 25.07 8.1 46.5 39 -5 23
15:25 1020 30.12 849 25.07 8 46.3 39 -5.2 22.6
15:30 1020 30.12 849 25.07 8 46.3 39 -5.2 22.7
15:35 1020 30.12 849 25.07 7.8 46 40 -5 23.1
15:40 1020 30.12 849 25.07 7.6 45.8 40 -5 23
15:45 1020 30.12 849 25.07 7.4 45.4 42 -4.7 23.5
15:50 1020 30.12 849 25.07 7.6 45.6 41 -4.9 23.1
15:55 1020 30.12 849 25.07 7.3 45.2 42 -4.9 23.2
16:00 1020 30.12 849 25.07 7.3 45.1 41 -5.2 22.6
16:05 1020 30.12 849 25.07 7.5 45.4 41 -5 23
16:10 1020 30.12 849 25.07 7.4 45.3 41 -4.9 23.2
16:15 1020 30.12 849 25.07 7.3 45.2 42 -4.8 23.4
16:20 1020 30.12 849 25.07 7.4 45.4 41 -4.8 23.3
16:25 1020 30.12 849 25.07 7.3 45.1 43 -4.5 23.9
16:30 1020 30.12 849 25.07 7.2 45 44 -4.3 24.3
16:35 1020 30.12 849 25.07 7 44.7 45 -4.1 24.7
16:40 1020 30.12 849 25.07 7 44.7 45 -4 24.8
16:45 1020 30.12 849 25.07 6.9 44.5 47 -3.6 25.6
16:50 1020 30.12 849 25.07 6.9 44.4 46 -3.9 24.9
16:55 1020 30.12 849 25.07 6.7 44.1 46 -4.2 24.5
17:00 1020 30.12 850 25.1 6.5 43.8 47 -4.1 24.7
17:05 1020 30.12 850 25.1 6.4 43.5 47 -4 24.8
17:10 1020 30.12 850 25.1 6.3 43.4 49 -3.5 25.6
17:15 1020 30.12 850 25.1 6.2 43.1 51 -3.3 26.1
17:20 1021 30.15 850 25.1 6 42.8 51 -3.3 26
17:25 1021 30.15 850 25.1 5.9 42.6 52 -3.1 26.4
17:30 1021 30.15 850 25.1 5.7 42.3 53 -3.2 26.3
17:35 1021 30.15 850 25.1 5.6 42.1 54 -3 26.5
17:40 1021 30.15 850 25.1 5.5 41.9 54 -2.9 26.7
17:45 1021 30.15 850 25.1 5.4 41.7 55 -3 26.6
17:50 1021 30.15 850 25.1 5.4 41.6 55 -2.9 26.9
17:55 1021 30.15 850 25.1 5.3 41.5 56 -2.9 26.9
18:00 1021 30.15 850 25.1 5.2 41.3 57 -2.7 27.1
18:05 1021 30.15 850 25.1 5.1 41.2 57 -2.7 27.2
18:10 1021 30.15 850 25.1 5.1 41.2 58 -2.6 27.4
18:15 1021 30.15 850 25.1 5 41.1 58 -2.5 27.5
18:20 1021 30.15 850 25.1 5 41 58 -2.6 27.4
18:25 1021 30.15 850 25.1 5 41 59 -2.5 27.6
18:30 1021 30.15 850 25.1 4.9 40.9 59 -2.4 27.8
18:35 1021 30.15 851 25.13 4.8 40.7 60 -2.2 28
18:40 1021 30.15 851 25.13 4.8 40.7 60 -2.2 28.1
18:45 1021 30.15 851 25.13 4.8 40.6 61 -2.1 28.2
18:50 1022 30.18 851 25.13 4.7 40.5 62 -2 28.4
18:55 1022 30.18 851 25.13 4.6 40.3 63 -1.9 28.6
19:00 1022 30.18 851 25.13 4.5 40.2 64 -1.7 28.9
19:05 1022 30.18 851 25.13 4.4 40 65 -1.6 29.1
19:10 1022 30.18 851 25.13 4.3 39.8 66 -1.4 29.4
19:15 1022 30.18 851 25.13 4.2 39.6 68 -1.2 29.9
19:20 1022 30.18 851 25.13 4.1 39.4 69 -1 30.2
19:25 1022 30.18 851 25.13 4 39.2 72 -0.7 30.8
19:30 1022 30.18 851 25.13 3.8 38.8 74 -0.5 31.1
19:35 1022 30.18 851 25.13 3.7 38.6 75 -0.4 31.2
19:40 1022 30.18 851 25.13 3.6 38.5 76 -0.3 31.5
19:45 1022 30.18 851 25.13 3.5 38.2 77 -0.2 31.6
19:50 1022 30.18 851 25.13 3.3 37.9 78 -0.2 31.7
19:55 1022 30.18 851 25.13 3.2 37.8 77 -0.5 31.1
20:00 1022 30.18 851 25.13 3.3 37.9 77 -0.4 31.3
20:05 1022 30.18 851 25.13 3.2 37.8 78 -0.3 31.5
20:10 1022 30.18 851 25.13 3.3 37.9 77 -0.5 31.2
20:15 1022 30.18 851 25.13 3.2 37.8 78 -0.3 31.5
20:20 1022 30.18 851 25.13 3.2 37.7 78 -0.3 31.5
20:25 1022 30.18 851 25.13 3 37.5 79 -0.3 31.4
20:30 1022 30.18 851 25.13 2.9 37.2 79 -0.3 31.4
20:35 1022 30.18 851 25.13 2.9 37.2 79 -0.3 31.4
20:40 1022 30.18 851 25.13 3 37.3 79 -0.2 31.6
20:45 1022 30.18 851 25.13 2.9 37.3 81 -0.1 31.9
20:50 1022 30.18 852 25.16 2.9 37.2 81 -0 31.9
20:55 1022 30.18 852 25.16 2.7 36.9 83 0.1 32.3
21:00 1022 30.18 852 25.16 2.7 36.8 83 0 32
21:05 1022 30.18 852 25.16 2.5 36.4 84 0 32
21:10 1022 30.18 852 25.16 2.4 36.2 85 0 32.1
21:15 1022 30.18 852 25.16 2.3 36.1 84 -0.1 31.8
21:20 1022 30.18 852 25.16 2.2 35.9 84 -0.2 31.7
21:25 1022 30.18 852 25.16 2.2 35.9 86 0.1 32.1
21:30 1022 30.18 852 25.16 2.1 35.7 87 0.2 32.3
21:35 1022 30.18 852 25.16 2 35.6 87 0.1 32.2
21:40 1022 30.18 852 25.16 2.1 35.8 87 0.1 32.2
21:45 1022 30.18 852 25.16 2.1 35.8 87 0.2 32.4
21:50 1022 30.18 852 25.16 2.1 35.7 88 0.2 32.4
21:55 1022 30.18 852 25.16 2 35.6 88 0.2 32.3
22:00 1022 30.18 852 25.16 1.9 35.4 88 0.1 32.2
22:05 1022 30.18 852 25.16 1.9 35.4 88 0.1 32.2
22:10 1022 30.18 852 25.16 1.9 35.4 88 0.2 32.4
22:15 1022 30.18 852 25.16 1.9 35.5 88 0.2 32.3
22:20 1022 30.18 852 25.16 1.9 35.5 89 0.3 32.5
22:25 1022 30.18 852 25.16 1.9 35.5 88 0.2 32.3
22:30 1022 30.18 852 25.16 1.9 35.4 88 0.1 32.2
22:35 1022 30.18 852 25.16 1.9 35.5 86 -0.2 31.7
22:40 1022 30.18 852 25.16 1.9 35.5 87 0 32
22:45 1022 30.18 852 25.16 2 35.6 87 0.1 32.1
22:50 1022 30.18 852 25.16 2 35.7 87 0.1 32.2
22:55 1022 30.18 852 25.16 2 35.6 87 0 32.1
23:00 1022 30.18 852 25.16 2 35.6 87 0.1 32.2
23:05 1022 30.18 852 25.16 2 35.6 87 0 32.1
23:10 1022 30.18 852 25.16 2 35.6 88 0.2 32.3
23:15 1022 30.18 852 25.16 2.1 35.7 87 0.1 32.2
23:20 1022 30.18 852 25.16 2.1 35.8 87 0.2 32.3
23:25 1022 30.18 852 25.16 2.1 35.9 86 0.1 32.1
23:30 1022 30.18 852 25.16 2.2 35.9 86 0 32
23:35 1022 30.18 852 25.16 2.2 35.9 86 0.1 32.2
23:40 1023 30.21 852 25.16 2.2 36 86 0.1 32.2
23:45 1023 30.21 852 25.16 2.4 36.2 85 0.2 32.3
23:50 1023 30.21 852 25.16 2.4 36.3 86 0.2 32.3
23:55 1023 30.21 852 25.16 2.4 36.3 86 0.3 32.5
24:00 1023 30.21 852 25.16 2.4 36.2 86 0.3 32.5